sensor_id;sensor_type;location;lat;lon;timestamp;P1;durP1;ratioP1;P2;durP2;ratioP2
29344;SDS011;16339;48.748;2.222;2023-05-10T00:01:54;6.85;;;1.60;;
29344;SDS011;16339;48.748;2.222;2023-05-10T00:04:23;13.20;;;1.75;;
29344;SDS011;16339;48.748;2.222;2023-05-10T00:06:52;10.43;;;1.80;;
29344;SDS011;16339;48.748;2.222;2023-05-10T00:09:23;6.88;;;1.45;;
29344;SDS011;16339;48.748;2.222;2023-05-10T00:11:52;14.13;;;1.67;;
29344;SDS011;16339;48.748;2.222;2023-05-10T00:14:23;6.93;;;1.27;;
29344;SDS011;16339;48.748;2.222;2023-05-10T00:16:52;6.78;;;1.25;;
29344;SDS011;16339;48.748;2.222;2023-05-10T00:19:20;9.75;;;1.55;;
29344;SDS011;16339;48.748;2.222;2023-05-10T00:24:23;4.32;;;1.20;;
29344;SDS011;16339;48.748;2.222;2023-05-10T00:26:52;7.40;;;1.27;;
29344;SDS011;16339;48.748;2.222;2023-05-10T00:29:20;9.10;;;2.13;;
29344;SDS011;16339;48.748;2.222;2023-05-10T00:31:49;12.35;;;1.70;;
29344;SDS011;16339;48.748;2.222;2023-05-10T00:34:18;4.25;;;1.38;;
29344;SDS011;16339;48.748;2.222;2023-05-10T00:36:46;8.40;;;1.40;;
29344;SDS011;16339;48.748;2.222;2023-05-10T00:39:15;9.15;;;1.40;;
29344;SDS011;16339;48.748;2.222;2023-05-10T00:41:46;8.25;;;1.55;;
29344;SDS011;16339;48.748;2.222;2023-05-10T00:44:15;8.90;;;1.52;;
29344;SDS011;16339;48.748;2.222;2023-05-10T00:46:44;13.50;;;1.40;;
29344;SDS011;16339;48.748;2.222;2023-05-10T00:49:13;11.80;;;1.40;;
29344;SDS011;16339;48.748;2.222;2023-05-10T00:51:42;7.10;;;1.13;;
29344;SDS011;16339;48.748;2.222;2023-05-10T00:54:10;8.77;;;1.63;;
29344;SDS011;16339;48.748;2.222;2023-05-10T00:56:40;6.93;;;1.27;;
29344;SDS011;16339;48.748;2.222;2023-05-10T00:59:16;10.25;;;1.20;;
29344;SDS011;16339;48.748;2.222;2023-05-10T01:01:45;6.85;;;1.10;;
29344;SDS011;16339;48.748;2.222;2023-05-10T01:04:14;10.57;;;1.17;;
29344;SDS011;16339;48.748;2.222;2023-05-10T01:06:45;10.43;;;1.37;;
29344;SDS011;16339;48.748;2.222;2023-05-10T01:09:13;7.15;;;1.20;;
29344;SDS011;16339;48.748;2.222;2023-05-10T01:11:43;8.10;;;1.30;;
29344;SDS011;16339;48.748;2.222;2023-05-10T01:14:12;14.93;;;1.50;;
29344;SDS011;16339;48.748;2.222;2023-05-10T01:16:43;7.43;;;1.17;;
29344;SDS011;16339;48.748;2.222;2023-05-10T01:19:16;7.75;;;1.52;;
29344;SDS011;16339;48.748;2.222;2023-05-10T01:21:48;2.22;;;0.98;;
29344;SDS011;16339;48.748;2.222;2023-05-10T01:24:27;2.88;;;0.93;;
29344;SDS011;16339;48.748;2.222;2023-05-10T01:27:23;6.72;;;1.00;;
29344;SDS011;16339;48.748;2.222;2023-05-10T01:35:40;11.75;;;1.35;;
29344;SDS011;16339;48.748;2.222;2023-05-10T01:38:15;7.22;;;1.30;;
29344;SDS011;16339;48.748;2.222;2023-05-10T01:40:52;6.63;;;1.33;;
29344;SDS011;16339;48.748;2.222;2023-05-10T01:43:31;6.47;;;1.20;;
29344;SDS011;16339;48.748;2.222;2023-05-10T01:46:05;13.52;;;1.15;;
29344;SDS011;16339;48.748;2.222;2023-05-10T01:48:42;2.45;;;0.90;;
29344;SDS011;16339;48.748;2.222;2023-05-10T01:51:16;5.75;;;1.20;;
29344;SDS011;16339;48.748;2.222;2023-05-10T01:53:50;6.88;;;0.95;;
29344;SDS011;16339;48.748;2.222;2023-05-10T01:56:23;1.88;;;0.73;;
29344;SDS011;16339;48.748;2.222;2023-05-10T01:58:53;9.75;;;1.45;;
29344;SDS011;16339;48.748;2.222;2023-05-10T02:01:24;6.85;;;1.15;;
29344;SDS011;16339;48.748;2.222;2023-05-10T02:03:57;2.67;;;0.90;;
29344;SDS011;16339;48.748;2.222;2023-05-10T02:06:26;5.07;;;1.20;;
29344;SDS011;16339;48.748;2.222;2023-05-10T02:08:55;8.85;;;1.17;;
29344;SDS011;16339;48.748;2.222;2023-05-10T02:11:25;6.40;;;0.95;;
29344;SDS011;16339;48.748;2.222;2023-05-10T02:13:56;6.32;;;1.30;;
29344;SDS011;16339;48.748;2.222;2023-05-10T02:16:26;10.15;;;1.10;;
29344;SDS011;16339;48.748;2.222;2023-05-10T02:18:58;12.50;;;1.33;;
29344;SDS011;16339;48.748;2.222;2023-05-10T02:21:29;8.00;;;1.00;;
29344;SDS011;16339;48.748;2.222;2023-05-10T02:23:59;3.90;;;1.02;;
29344;SDS011;16339;48.748;2.222;2023-05-10T02:26:31;9.45;;;1.45;;
29344;SDS011;16339;48.748;2.222;2023-05-10T02:29:01;7.35;;;1.20;;
29344;SDS011;16339;48.748;2.222;2023-05-10T02:31:32;10.07;;;1.17;;
29344;SDS011;16339;48.748;2.222;2023-05-10T02:34:06;7.60;;;1.08;;
29344;SDS011;16339;48.748;2.222;2023-05-10T02:36:36;5.65;;;1.02;;
29344;SDS011;16339;48.748;2.222;2023-05-10T02:39:06;7.13;;;1.45;;
29344;SDS011;16339;48.748;2.222;2023-05-10T02:41:38;3.55;;;1.10;;
29344;SDS011;16339;48.748;2.222;2023-05-10T02:44:08;11.30;;;1.17;;
29344;SDS011;16339;48.748;2.222;2023-05-10T02:46:37;8.18;;;1.08;;
29344;SDS011;16339;48.748;2.222;2023-05-10T02:49:09;6.90;;;1.20;;
29344;SDS011;16339;48.748;2.222;2023-05-10T02:51:39;5.93;;;1.08;;
29344;SDS011;16339;48.748;2.222;2023-05-10T02:54:12;4.35;;;1.17;;
29344;SDS011;16339;48.748;2.222;2023-05-10T02:56:47;5.13;;;1.15;;
29344;SDS011;16339;48.748;2.222;2023-05-10T02:59:19;4.47;;;1.17;;
29344;SDS011;16339;48.748;2.222;2023-05-10T03:01:47;5.82;;;1.27;;
29344;SDS011;16339;48.748;2.222;2023-05-10T03:04:19;6.88;;;1.15;;
29344;SDS011;16339;48.748;2.222;2023-05-10T03:06:47;9.45;;;1.20;;
29344;SDS011;16339;48.748;2.222;2023-05-10T03:09:16;13.40;;;1.27;;
29344;SDS011;16339;48.748;2.222;2023-05-10T03:11:48;7.35;;;1.15;;
29344;SDS011;16339;48.748;2.222;2023-05-10T03:14:25;5.78;;;1.30;;
29344;SDS011;16339;48.748;2.222;2023-05-10T03:17:04;6.13;;;1.08;;
29344;SDS011;16339;48.748;2.222;2023-05-10T03:19:43;5.80;;;1.00;;
29344;SDS011;16339;48.748;2.222;2023-05-10T03:22:17;5.60;;;1.15;;
29344;SDS011;16339;48.748;2.222;2023-05-10T03:24:53;3.83;;;1.15;;
29344;SDS011;16339;48.748;2.222;2023-05-10T03:27:25;11.73;;;2.40;;
29344;SDS011;16339;48.748;2.222;2023-05-10T03:29:55;7.88;;;1.13;;
29344;SDS011;16339;48.748;2.222;2023-05-10T03:32:25;3.65;;;1.23;;
29344;SDS011;16339;48.748;2.222;2023-05-10T03:34:57;6.82;;;0.90;;
29344;SDS011;16339;48.748;2.222;2023-05-10T03:37:27;3.67;;;0.98;;
29344;SDS011;16339;48.748;2.222;2023-05-10T03:39:56;5.07;;;1.08;;
29344;SDS011;16339;48.748;2.222;2023-05-10T03:42:24;4.43;;;1.00;;
29344;SDS011;16339;48.748;2.222;2023-05-10T03:44:53;5.13;;;1.20;;
29344;SDS011;16339;48.748;2.222;2023-05-10T03:47:22;13.70;;;1.65;;
29344;SDS011;16339;48.748;2.222;2023-05-10T03:49:51;13.77;;;1.73;;
29344;SDS011;16339;48.748;2.222;2023-05-10T03:52:22;7.40;;;1.60;;
29344;SDS011;16339;48.748;2.222;2023-05-10T03:54:51;10.18;;;1.75;;
29344;SDS011;16339;48.748;2.222;2023-05-10T03:57:19;4.85;;;1.27;;
29344;SDS011;16339;48.748;2.222;2023-05-10T03:59:48;7.65;;;1.73;;
29344;SDS011;16339;48.748;2.222;2023-05-10T04:02:17;6.00;;;1.55;;
29344;SDS011;16339;48.748;2.222;2023-05-10T04:04:45;8.35;;;1.30;;
29344;SDS011;16339;48.748;2.222;2023-05-10T04:07:14;2.90;;;1.13;;
29344;SDS011;16339;48.748;2.222;2023-05-10T04:09:46;10.65;;;1.45;;
29344;SDS011;16339;48.748;2.222;2023-05-10T04:12:15;8.77;;;1.55;;
29344;SDS011;16339;48.748;2.222;2023-05-10T04:14:44;2.72;;;1.17;;
29344;SDS011;16339;48.748;2.222;2023-05-10T04:17:12;9.52;;;1.40;;
29344;SDS011;16339;48.748;2.222;2023-05-10T04:19:41;5.22;;;1.25;;
29344;SDS011;16339;48.748;2.222;2023-05-10T04:22:10;7.57;;;1.35;;
29344;SDS011;16339;48.748;2.222;2023-05-10T04:24:38;11.77;;;1.30;;
29344;SDS011;16339;48.748;2.222;2023-05-10T04:27:09;10.77;;;1.20;;
29344;SDS011;16339;48.748;2.222;2023-05-10T04:32:07;5.53;;;1.33;;
29344;SDS011;16339;48.748;2.222;2023-05-10T04:34:36;4.80;;;1.33;;
29344;SDS011;16339;48.748;2.222;2023-05-10T04:37:04;6.53;;;1.30;;
29344;SDS011;16339;48.748;2.222;2023-05-10T04:39:33;4.80;;;1.63;;
29344;SDS011;16339;48.748;2.222;2023-05-10T04:42:02;10.57;;;1.90;;
29344;SDS011;16339;48.748;2.222;2023-05-10T04:44:34;3.70;;;1.50;;
29344;SDS011;16339;48.748;2.222;2023-05-10T04:47:03;5.20;;;1.30;;
29344;SDS011;16339;48.748;2.222;2023-05-10T04:49:34;2.42;;;1.23;;
29344;SDS011;16339;48.748;2.222;2023-05-10T04:52:03;6.40;;;1.30;;
29344;SDS011;16339;48.748;2.222;2023-05-10T04:54:32;5.18;;;1.27;;
29344;SDS011;16339;48.748;2.222;2023-05-10T04:57:00;4.10;;;1.27;;
29344;SDS011;16339;48.748;2.222;2023-05-10T04:59:29;7.30;;;1.45;;
29344;SDS011;16339;48.748;2.222;2023-05-10T05:02:00;6.20;;;1.40;;
29344;SDS011;16339;48.748;2.222;2023-05-10T05:06:58;6.40;;;1.45;;
29344;SDS011;16339;48.748;2.222;2023-05-10T05:09:27;5.10;;;1.20;;
29344;SDS011;16339;48.748;2.222;2023-05-10T05:11:57;2.35;;;1.40;;
29344;SDS011;16339;48.748;2.222;2023-05-10T05:14:25;5.78;;;1.40;;
29344;SDS011;16339;48.748;2.222;2023-05-10T05:16:54;4.07;;;1.25;;
29344;SDS011;16339;48.748;2.222;2023-05-10T05:19:28;3.58;;;1.50;;
29344;SDS011;16339;48.748;2.222;2023-05-10T05:21:59;2.70;;;1.35;;
29344;SDS011;16339;48.748;2.222;2023-05-10T05:24:27;5.15;;;1.55;;
29344;SDS011;16339;48.748;2.222;2023-05-10T05:26:56;9.23;;;1.63;;
29344;SDS011;16339;48.748;2.222;2023-05-10T05:29:25;2.70;;;1.40;;
29344;SDS011;16339;48.748;2.222;2023-05-10T05:31:54;10.85;;;1.98;;
29344;SDS011;16339;48.748;2.222;2023-05-10T05:34:23;5.97;;;1.48;;
29344;SDS011;16339;48.748;2.222;2023-05-10T05:36:54;6.75;;;1.45;;
29344;SDS011;16339;48.748;2.222;2023-05-10T05:39:23;3.40;;;1.52;;
29344;SDS011;16339;48.748;2.222;2023-05-10T05:41:52;5.15;;;1.77;;
29344;SDS011;16339;48.748;2.222;2023-05-10T05:44:20;7.15;;;1.67;;
29344;SDS011;16339;48.748;2.222;2023-05-10T05:46:49;6.25;;;1.77;;
29344;SDS011;16339;48.748;2.222;2023-05-10T05:49:18;11.80;;;1.63;;
29344;SDS011;16339;48.748;2.222;2023-05-10T05:51:46;4.10;;;1.52;;
29344;SDS011;16339;48.748;2.222;2023-05-10T05:54:18;4.70;;;2.05;;
29344;SDS011;16339;48.748;2.222;2023-05-10T05:56:46;5.93;;;1.95;;
29344;SDS011;16339;48.748;2.222;2023-05-10T05:59:15;7.68;;;1.80;;
29344;SDS011;16339;48.748;2.222;2023-05-10T06:01:44;6.93;;;1.95;;
29344;SDS011;16339;48.748;2.222;2023-05-10T06:04:14;7.32;;;1.95;;
29344;SDS011;16339;48.748;2.222;2023-05-10T06:06:42;8.70;;;2.10;;
29344;SDS011;16339;48.748;2.222;2023-05-10T06:09:11;13.20;;;2.13;;
29344;SDS011;16339;48.748;2.222;2023-05-10T06:11:43;9.27;;;2.47;;
29344;SDS011;16339;48.748;2.222;2023-05-10T06:14:12;7.28;;;2.35;;
29344;SDS011;16339;48.748;2.222;2023-05-10T06:16:41;9.90;;;2.40;;
29344;SDS011;16339;48.748;2.222;2023-05-10T06:19:09;10.07;;;2.20;;
29344;SDS011;16339;48.748;2.222;2023-05-10T06:21:38;9.60;;;2.60;;
29344;SDS011;16339;48.748;2.222;2023-05-10T06:24:07;8.43;;;1.92;;
29344;SDS011;16339;48.748;2.222;2023-05-10T06:26:35;9.13;;;1.80;;
29344;SDS011;16339;48.748;2.222;2023-05-10T06:29:07;4.35;;;2.03;;
29344;SDS011;16339;48.748;2.222;2023-05-10T06:31:35;7.30;;;2.47;;
29344;SDS011;16339;48.748;2.222;2023-05-10T06:34:05;6.43;;;2.50;;
29344;SDS011;16339;48.748;2.222;2023-05-10T06:36:34;8.68;;;2.13;;
29344;SDS011;16339;48.748;2.222;2023-05-10T06:39:03;6.60;;;1.83;;
29344;SDS011;16339;48.748;2.222;2023-05-10T06:41:32;10.65;;;2.30;;
29344;SDS011;16339;48.748;2.222;2023-05-10T06:44:00;6.65;;;1.90;;
29344;SDS011;16339;48.748;2.222;2023-05-10T06:46:33;5.05;;;1.90;;
29344;SDS011;16339;48.748;2.222;2023-05-10T06:49:02;6.22;;;1.60;;
29344;SDS011;16339;48.748;2.222;2023-05-10T06:51:31;6.13;;;1.63;;
29344;SDS011;16339;48.748;2.222;2023-05-10T06:54:02;7.85;;;1.80;;
29344;SDS011;16339;48.748;2.222;2023-05-10T06:56:31;3.65;;;1.42;;
29344;SDS011;16339;48.748;2.222;2023-05-10T06:59:00;6.72;;;1.20;;
29344;SDS011;16339;48.748;2.222;2023-05-10T07:01:29;2.08;;;1.30;;
29344;SDS011;16339;48.748;2.222;2023-05-10T07:04:00;3.33;;;1.10;;
29344;SDS011;16339;48.748;2.222;2023-05-10T07:08:58;2.50;;;1.17;;
29344;SDS011;16339;48.748;2.222;2023-05-10T07:11:27;3.70;;;1.27;;
29344;SDS011;16339;48.748;2.222;2023-05-10T07:13:56;2.03;;;1.05;;
29344;SDS011;16339;48.748;2.222;2023-05-10T07:16:24;6.53;;;1.30;;
29344;SDS011;16339;48.748;2.222;2023-05-10T07:18:53;3.83;;;1.00;;
29344;SDS011;16339;48.748;2.222;2023-05-10T07:21:25;3.45;;;1.00;;
29344;SDS011;16339;48.748;2.222;2023-05-10T07:23:53;3.58;;;1.08;;
29344;SDS011;16339;48.748;2.222;2023-05-10T07:26:22;1.60;;;1.02;;
29344;SDS011;16339;48.748;2.222;2023-05-10T07:28:51;3.33;;;0.95;;
29344;SDS011;16339;48.748;2.222;2023-05-10T07:31:20;1.98;;;1.20;;
29344;SDS011;16339;48.748;2.222;2023-05-10T07:33:49;3.17;;;1.63;;
29344;SDS011;16339;48.748;2.222;2023-05-10T07:36:17;3.63;;;1.42;;
29344;SDS011;16339;48.748;2.222;2023-05-10T07:38:49;6.07;;;1.10;;
29344;SDS011;16339;48.748;2.222;2023-05-10T07:41:17;3.95;;;1.63;;
29344;SDS011;16339;48.748;2.222;2023-05-10T07:43:47;5.15;;;1.42;;
29344;SDS011;16339;48.748;2.222;2023-05-10T07:46:16;3.80;;;1.50;;
29344;SDS011;16339;48.748;2.222;2023-05-10T07:48:45;6.53;;;1.33;;
29344;SDS011;16339;48.748;2.222;2023-05-10T07:51:14;5.47;;;1.60;;
29344;SDS011;16339;48.748;2.222;2023-05-10T07:53:42;6.90;;;1.83;;
29344;SDS011;16339;48.748;2.222;2023-05-10T07:56:25;3.05;;;1.33;;
29344;SDS011;16339;48.748;2.222;2023-05-10T07:58:57;2.95;;;1.50;;
29344;SDS011;16339;48.748;2.222;2023-05-10T08:01:26;2.13;;;1.25;;
29344;SDS011;16339;48.748;2.222;2023-05-10T08:03:58;3.22;;;1.42;;
29344;SDS011;16339;48.748;2.222;2023-05-10T08:06:26;5.38;;;1.52;;
29344;SDS011;16339;48.748;2.222;2023-05-10T08:08:55;3.22;;;1.20;;
29344;SDS011;16339;48.748;2.222;2023-05-10T08:11:27;4.45;;;1.23;;
29344;SDS011;16339;48.748;2.222;2023-05-10T08:13:56;4.72;;;1.15;;
29344;SDS011;16339;48.748;2.222;2023-05-10T08:16:24;1.67;;;0.80;;
29344;SDS011;16339;48.748;2.222;2023-05-10T08:18:53;3.92;;;0.93;;
29344;SDS011;16339;48.748;2.222;2023-05-10T08:21:22;4.50;;;0.80;;
29344;SDS011;16339;48.748;2.222;2023-05-10T08:23:51;1.38;;;0.80;;
29344;SDS011;16339;48.748;2.222;2023-05-10T08:26:20;3.67;;;0.73;;
29344;SDS011;16339;48.748;2.222;2023-05-10T08:28:51;1.73;;;0.82;;
29344;SDS011;16339;48.748;2.222;2023-05-10T08:31:20;2.72;;;0.82;;
29344;SDS011;16339;48.748;2.222;2023-05-10T08:33:49;6.97;;;1.35;;
29344;SDS011;16339;48.748;2.222;2023-05-10T08:36:19;7.63;;;1.60;;
29344;SDS011;16339;48.748;2.222;2023-05-10T08:38:49;5.75;;;1.48;;
29344;SDS011;16339;48.748;2.222;2023-05-10T08:41:19;6.65;;;1.92;;
29344;SDS011;16339;48.748;2.222;2023-05-10T08:43:52;15.50;;;2.28;;
29344;SDS011;16339;48.748;2.222;2023-05-10T08:46:22;11.77;;;2.92;;
29344;SDS011;16339;48.748;2.222;2023-05-10T08:48:51;8.90;;;2.50;;
29344;SDS011;16339;48.748;2.222;2023-05-10T08:51:22;11.93;;;2.90;;
29344;SDS011;16339;48.748;2.222;2023-05-10T08:53:54;15.07;;;2.72;;
29344;SDS011;16339;48.748;2.222;2023-05-10T08:56:24;9.90;;;2.70;;
29344;SDS011;16339;48.748;2.222;2023-05-10T08:58:55;22.27;;;3.50;;
29344;SDS011;16339;48.748;2.222;2023-05-10T09:01:25;19.00;;;4.13;;
29344;SDS011;16339;48.748;2.222;2023-05-10T09:03:55;14.15;;;3.20;;
29344;SDS011;16339;48.748;2.222;2023-05-10T09:06:24;22.25;;;3.70;;
29344;SDS011;16339;48.748;2.222;2023-05-10T09:08:53;25.20;;;4.53;;
29344;SDS011;16339;48.748;2.222;2023-05-10T09:11:23;30.35;;;4.20;;
29344;SDS011;16339;48.748;2.222;2023-05-10T09:13:56;15.55;;;3.47;;
29344;SDS011;16339;48.748;2.222;2023-05-10T09:16:25;26.55;;;4.45;;
29344;SDS011;16339;48.748;2.222;2023-05-10T09:18:54;26.15;;;4.68;;
29344;SDS011;16339;48.748;2.222;2023-05-10T09:21:23;23.13;;;4.32;;
29344;SDS011;16339;48.748;2.222;2023-05-10T09:23:51;24.55;;;4.45;;
29344;SDS011;16339;48.748;2.222;2023-05-10T09:26:21;26.10;;;4.43;;
29344;SDS011;16339;48.748;2.222;2023-05-10T09:28:52;20.33;;;4.25;;
29344;SDS011;16339;48.748;2.222;2023-05-10T09:31:24;28.00;;;4.35;;
29344;SDS011;16339;48.748;2.222;2023-05-10T09:34:11;26.98;;;4.93;;
29344;SDS011;16339;48.748;2.222;2023-05-10T09:36:56;25.10;;;5.53;;
29344;SDS011;16339;48.748;2.222;2023-05-10T09:39:33;28.98;;;4.45;;
29344;SDS011;16339;48.748;2.222;2023-05-10T09:42:03;32.13;;;5.15;;
29344;SDS011;16339;48.748;2.222;2023-05-10T09:44:34;23.98;;;4.75;;
29344;SDS011;16339;48.748;2.222;2023-05-10T09:47:06;19.63;;;4.65;;
29344;SDS011;16339;48.748;2.222;2023-05-10T09:49:34;27.33;;;4.75;;
29344;SDS011;16339;48.748;2.222;2023-05-10T09:52:03;22.63;;;4.15;;
29344;SDS011;16339;48.748;2.222;2023-05-10T09:54:33;22.13;;;4.50;;
29344;SDS011;16339;48.748;2.222;2023-05-10T09:57:02;25.45;;;5.07;;
29344;SDS011;16339;48.748;2.222;2023-05-10T09:59:32;21.20;;;4.10;;
29344;SDS011;16339;48.748;2.222;2023-05-10T10:02:02;27.77;;;4.57;;
29344;SDS011;16339;48.748;2.222;2023-05-10T10:04:38;26.63;;;4.93;;
29344;SDS011;16339;48.748;2.222;2023-05-10T10:07:07;27.23;;;4.30;;
29344;SDS011;16339;48.748;2.222;2023-05-10T10:09:36;25.10;;;5.07;;
29344;SDS011;16339;48.748;2.222;2023-05-10T10:12:05;17.85;;;4.28;;
29344;SDS011;16339;48.748;2.222;2023-05-10T10:14:34;27.58;;;4.65;;
29344;SDS011;16339;48.748;2.222;2023-05-10T10:17:06;27.05;;;4.93;;
29344;SDS011;16339;48.748;2.222;2023-05-10T10:19:35;34.05;;;4.93;;
29344;SDS011;16339;48.748;2.222;2023-05-10T10:22:04;18.48;;;4.38;;
29344;SDS011;16339;48.748;2.222;2023-05-10T10:24:33;19.13;;;4.47;;
29344;SDS011;16339;48.748;2.222;2023-05-10T10:27:04;29.92;;;4.72;;
29344;SDS011;16339;48.748;2.222;2023-05-10T10:29:41;36.20;;;5.10;;
29344;SDS011;16339;48.748;2.222;2023-05-10T10:32:23;22.67;;;4.35;;
29344;SDS011;16339;48.748;2.222;2023-05-10T10:35:03;28.60;;;4.20;;
29344;SDS011;16339;48.748;2.222;2023-05-10T10:37:43;26.30;;;5.10;;
29344;SDS011;16339;48.748;2.222;2023-05-10T10:42:58;23.15;;;4.32;;
29344;SDS011;16339;48.748;2.222;2023-05-10T10:48:49;21.20;;;4.57;;
29344;SDS011;16339;48.748;2.222;2023-05-10T10:51:36;22.63;;;3.42;;
29344;SDS011;16339;48.748;2.222;2023-05-10T10:54:08;28.33;;;4.57;;
29344;SDS011;16339;48.748;2.222;2023-05-10T10:56:38;24.40;;;3.30;;
29344;SDS011;16339;48.748;2.222;2023-05-10T10:59:07;26.42;;;3.90;;
29344;SDS011;16339;48.748;2.222;2023-05-10T11:01:35;18.55;;;3.38;;
29344;SDS011;16339;48.748;2.222;2023-05-10T11:04:21;16.27;;;3.42;;
29344;SDS011;16339;48.748;2.222;2023-05-10T11:06:52;27.05;;;3.70;;
29344;SDS011;16339;48.748;2.222;2023-05-10T11:09:48;16.98;;;3.63;;
29344;SDS011;16339;48.748;2.222;2023-05-10T11:12:19;21.75;;;4.03;;
29344;SDS011;16339;48.748;2.222;2023-05-10T11:14:49;21.05;;;4.10;;
29344;SDS011;16339;48.748;2.222;2023-05-10T11:17:24;13.48;;;3.10;;
29344;SDS011;16339;48.748;2.222;2023-05-10T11:20:07;20.38;;;3.72;;
29344;SDS011;16339;48.748;2.222;2023-05-10T11:22:52;18.77;;;3.25;;
29344;SDS011;16339;48.748;2.222;2023-05-10T11:25:26;29.70;;;3.90;;
29344;SDS011;16339;48.748;2.222;2023-05-10T11:27:55;19.55;;;3.10;;
29344;SDS011;16339;48.748;2.222;2023-05-10T11:30:24;21.70;;;3.80;;
29344;SDS011;16339;48.748;2.222;2023-05-10T11:32:53;26.92;;;3.88;;
29344;SDS011;16339;48.748;2.222;2023-05-10T11:35:21;20.52;;;3.60;;
29344;SDS011;16339;48.748;2.222;2023-05-10T11:37:55;17.05;;;3.78;;
29344;SDS011;16339;48.748;2.222;2023-05-10T11:40:24;18.08;;;3.53;;
29344;SDS011;16339;48.748;2.222;2023-05-10T11:42:55;23.15;;;4.20;;
29344;SDS011;16339;48.748;2.222;2023-05-10T11:45:24;18.00;;;3.67;;
29344;SDS011;16339;48.748;2.222;2023-05-10T11:47:53;16.25;;;3.58;;
29344;SDS011;16339;48.748;2.222;2023-05-10T11:50:21;19.58;;;3.40;;
29344;SDS011;16339;48.748;2.222;2023-05-10T11:52:51;11.90;;;3.30;;
29344;SDS011;16339;48.748;2.222;2023-05-10T11:55:23;16.67;;;3.70;;
29344;SDS011;16339;48.748;2.222;2023-05-10T11:57:52;12.50;;;2.85;;
29344;SDS011;16339;48.748;2.222;2023-05-10T12:00:23;20.83;;;3.42;;
29344;SDS011;16339;48.748;2.222;2023-05-10T12:02:52;13.10;;;2.90;;
29344;SDS011;16339;48.748;2.222;2023-05-10T12:05:20;11.05;;;3.03;;
29344;SDS011;16339;48.748;2.222;2023-05-10T12:07:49;18.85;;;3.28;;
29344;SDS011;16339;48.748;2.222;2023-05-10T12:10:24;19.27;;;3.33;;
29344;SDS011;16339;48.748;2.222;2023-05-10T12:12:57;14.80;;;3.17;;
29344;SDS011;16339;48.748;2.222;2023-05-10T12:15:26;19.50;;;3.28;;
29344;SDS011;16339;48.748;2.222;2023-05-10T12:17:56;13.95;;;3.20;;
29344;SDS011;16339;48.748;2.222;2023-05-10T12:20:27;12.05;;;3.38;;
29344;SDS011;16339;48.748;2.222;2023-05-10T12:22:57;16.05;;;2.80;;
29344;SDS011;16339;48.748;2.222;2023-05-10T12:25:32;17.73;;;2.85;;
29344;SDS011;16339;48.748;2.222;2023-05-10T12:28:02;17.23;;;3.08;;
29344;SDS011;16339;48.748;2.222;2023-05-10T12:30:32;14.73;;;3.30;;
29344;SDS011;16339;48.748;2.222;2023-05-10T12:33:07;15.52;;;3.28;;
29344;SDS011;16339;48.748;2.222;2023-05-10T12:35:43;11.00;;;2.85;;
29344;SDS011;16339;48.748;2.222;2023-05-10T12:38:23;16.55;;;3.03;;
29344;SDS011;16339;48.748;2.222;2023-05-10T12:40:57;10.48;;;2.90;;
29344;SDS011;16339;48.748;2.222;2023-05-10T12:43:26;15.27;;;3.08;;
29344;SDS011;16339;48.748;2.222;2023-05-10T12:45:55;13.52;;;2.67;;
29344;SDS011;16339;48.748;2.222;2023-05-10T12:48:24;17.65;;;3.42;;
29344;SDS011;16339;48.748;2.222;2023-05-10T12:50:54;9.25;;;3.00;;
29344;SDS011;16339;48.748;2.222;2023-05-10T12:53:22;15.20;;;2.83;;
29344;SDS011;16339;48.748;2.222;2023-05-10T12:55:51;14.73;;;3.13;;
29344;SDS011;16339;48.748;2.222;2023-05-10T12:58:22;18.30;;;2.92;;
29344;SDS011;16339;48.748;2.222;2023-05-10T13:00:51;12.93;;;3.08;;
29344;SDS011;16339;48.748;2.222;2023-05-10T13:03:21;13.85;;;2.92;;
29344;SDS011;16339;48.748;2.222;2023-05-10T13:05:50;14.32;;;3.30;;
29344;SDS011;16339;48.748;2.222;2023-05-10T13:08:20;21.30;;;6.55;;
29344;SDS011;16339;48.748;2.222;2023-05-10T13:10:50;17.75;;;2.80;;
29344;SDS011;16339;48.748;2.222;2023-05-10T13:13:18;12.50;;;3.22;;
29344;SDS011;16339;48.748;2.222;2023-05-10T13:15:50;13.70;;;3.47;;
29344;SDS011;16339;48.748;2.222;2023-05-10T13:20:47;15.52;;;3.55;;
29344;SDS011;16339;48.748;2.222;2023-05-10T13:23:15;10.73;;;3.00;;
29344;SDS011;16339;48.748;2.222;2023-05-10T13:25:44;19.27;;;3.30;;
29344;SDS011;16339;48.748;2.222;2023-05-10T13:28:13;9.68;;;3.22;;
29344;SDS011;16339;48.748;2.222;2023-05-10T13:30:41;8.75;;;2.55;;
29344;SDS011;16339;48.748;2.222;2023-05-10T13:33:13;11.75;;;3.47;;
29344;SDS011;16339;48.748;2.222;2023-05-10T13:35:43;10.25;;;2.92;;
29344;SDS011;16339;48.748;2.222;2023-05-10T13:38:12;15.65;;;3.25;;
29344;SDS011;16339;48.748;2.222;2023-05-10T13:40:41;15.30;;;3.60;;
29344;SDS011;16339;48.748;2.222;2023-05-10T13:43:09;13.45;;;3.08;;
29344;SDS011;16339;48.748;2.222;2023-05-10T13:45:38;14.00;;;3.03;;
29344;SDS011;16339;48.748;2.222;2023-05-10T13:48:07;8.20;;;2.53;;
29344;SDS011;16339;48.748;2.222;2023-05-10T13:50:39;13.90;;;3.17;;
29344;SDS011;16339;48.748;2.222;2023-05-10T13:55:36;11.57;;;2.75;;
29344;SDS011;16339;48.748;2.222;2023-05-10T13:58:05;10.20;;;3.05;;
29344;SDS011;16339;48.748;2.222;2023-05-10T14:00:34;14.52;;;3.17;;
29344;SDS011;16339;48.748;2.222;2023-05-10T14:03:03;10.77;;;2.58;;
29344;SDS011;16339;48.748;2.222;2023-05-10T14:05:35;10.27;;;2.90;;
29344;SDS011;16339;48.748;2.222;2023-05-10T14:10:38;7.40;;;2.55;;
29344;SDS011;16339;48.748;2.222;2023-05-10T14:13:07;8.27;;;2.70;;
29344;SDS011;16339;48.748;2.222;2023-05-10T14:15:35;9.52;;;2.70;;
29344;SDS011;16339;48.748;2.222;2023-05-10T14:18:04;12.63;;;3.00;;
29344;SDS011;16339;48.748;2.222;2023-05-10T14:20:33;14.05;;;2.88;;
29344;SDS011;16339;48.748;2.222;2023-05-10T14:23:04;12.40;;;2.55;;
29344;SDS011;16339;48.748;2.222;2023-05-10T14:25:33;8.85;;;2.70;;
29344;SDS011;16339;48.748;2.222;2023-05-10T14:28:03;12.38;;;2.53;;
29344;SDS011;16339;48.748;2.222;2023-05-10T14:30:32;6.35;;;2.13;;
29344;SDS011;16339;48.748;2.222;2023-05-10T14:33:01;13.38;;;2.67;;
29344;SDS011;16339;48.748;2.222;2023-05-10T14:35:30;9.18;;;2.17;;
29344;SDS011;16339;48.748;2.222;2023-05-10T14:38:01;13.88;;;2.75;;
29344;SDS011;16339;48.748;2.222;2023-05-10T14:40:33;9.73;;;2.38;;
29344;SDS011;16339;48.748;2.222;2023-05-10T14:43:02;16.42;;;2.97;;
29344;SDS011;16339;48.748;2.222;2023-05-10T14:45:31;13.38;;;3.22;;
29344;SDS011;16339;48.748;2.222;2023-05-10T14:47:59;15.45;;;3.63;;
29344;SDS011;16339;48.748;2.222;2023-05-10T14:50:29;14.70;;;3.30;;
29344;SDS011;16339;48.748;2.222;2023-05-10T14:52:58;15.02;;;3.70;;
29344;SDS011;16339;48.748;2.222;2023-05-10T14:55:29;6.63;;;2.50;;
29344;SDS011;16339;48.748;2.222;2023-05-10T14:57:59;11.05;;;2.55;;
29344;SDS011;16339;48.748;2.222;2023-05-10T15:00:29;10.70;;;2.97;;
29344;SDS011;16339;48.748;2.222;2023-05-10T15:02:58;13.77;;;3.10;;
29344;SDS011;16339;48.748;2.222;2023-05-10T15:05:27;8.80;;;2.60;;
29344;SDS011;16339;48.748;2.222;2023-05-10T15:07:55;12.70;;;2.92;;
29344;SDS011;16339;48.748;2.222;2023-05-10T15:10:24;8.80;;;3.03;;
29344;SDS011;16339;48.748;2.222;2023-05-10T15:12:55;15.77;;;3.30;;
29344;SDS011;16339;48.748;2.222;2023-05-10T15:17:52;10.38;;;3.10;;
29344;SDS011;16339;48.748;2.222;2023-05-10T15:20:21;12.40;;;3.30;;
29344;SDS011;16339;48.748;2.222;2023-05-10T15:22:51;13.80;;;3.50;;
29344;SDS011;16339;48.748;2.222;2023-05-10T15:25:20;15.47;;;3.20;;
29344;SDS011;16339;48.748;2.222;2023-05-10T15:27:49;10.02;;;2.92;;
29344;SDS011;16339;48.748;2.222;2023-05-10T15:30:20;9.73;;;2.97;;
29344;SDS011;16339;48.748;2.222;2023-05-10T15:32:49;14.02;;;3.08;;